Milwaukee, Wisconsin
Traffic Map
Current Weather Conditions
Milwaukee, Wisconsin
Broken Clouds
Broken Clouds
81°
Feels Like: 84°
Wind Chill: 81° Ceiling: 25000
Heat Index: 84° Visibility: 10mi
Dew Point: 68° Wind: 6mph
Humidity: 65% Direction: 230° (SW)
Pressure: 29.94in Gusts: 0mph
Raw Report DataKMKE 150052Z 23005KT 10SM BKN250 27/20 A2994 RMK AO2 SLP134 T02720200
Traffic Incident Summary
Active as of:
Severity:
Category:
InformationThere was an issue retrieving the traffic information for this location. Please try a different location or try again shortly.
Advertisements